ETD13 OMAA-KATL
Flight info
| Callsign | ETD13 |
|---|---|
| Flight time | N/A |
| Altitude | 28000 |
| Route | BOSEV1K BOSEV N563 ALPOB L768 ITUDA/N0508F300 L768 AAR V45 TRF R652 OBROD Q163 GENEX L53 SUVAS N128 OTHON UN128 RDS UL609 LARKI/N0494F320 UL609 MES UG18 FSK UL608 DISOR DCT LONTA UL608 DOLEV DCT ETOBI DCT OGODI DCT SOTOV P66 KPT L608 TEDGO DCT LIRSU DCT BUB L608 DENUT L610 KOPUL Q60 OKSAW/N0482F340 DCT FELCA DCT FADZU DCT BANBA DCT LIMRI/M084F340 DCT 5230N02000W 5230N03000W 52N040W 4930N05000W DCT IBERG/N0482F360 N368A EBONY DCT KAYCC DCT KYLOH DCT BAF Q448 PTW J48 CSN/N0484F380 J48 MOL DCT FLASK OZZZI2 |
| Aircraft | B77W/H-V/N |
Departure
| Time | 2026-05-06 18:52 |
|---|---|
| Airport | Zayed International Airport (OMAA) |
Arrival
| Time | N/A |
|---|---|
| Airport | Hartsfield Jackson Atlanta International Airport (KATL) |
| Time | Latitude | Longitude | Altitude | Speed | Heading |
|---|---|---|---|---|---|
| 2026-05-06 18:25 | 24.44872 | 54.63903 | 96 ft | 0 kts | 335° |
| 2026-05-06 18:35 | 24.44868 | 54.63905 | 96 ft | 2 kts | 335° |
| 2026-05-06 18:36 | 24.44850 | 54.63914 | 97 ft | 3 kts | 334° |
| 2026-05-06 18:36 | 24.44832 | 54.63924 | 95 ft | 3 kts | 334° |
| 2026-05-06 18:36 | 24.44815 | 54.63933 | 96 ft | 2 kts | 334° |
| 2026-05-06 18:36 | 24.44801 | 54.63939 | 95 ft | 3 kts | 0° |
| 2026-05-06 18:37 | 24.44785 | 54.63935 | 94 ft | 3 kts | 48° |
| 2026-05-06 18:37 | 24.44777 | 54.63923 | 94 ft | 3 kts | 61° |
| 2026-05-06 18:37 | 24.44767 | 54.63903 | 97 ft | 1 kts | 65° |
| 2026-05-06 18:37 | 24.44766 | 54.63899 | 96 ft | 0 kts | 65° |
| 2026-05-06 18:41 | 24.44769 | 54.63906 | 96 ft | 3 kts | 65° |
| 2026-05-06 18:41 | 24.44789 | 54.63952 | 98 ft | 10 kts | 62° |
| 2026-05-06 18:41 | 24.44796 | 54.64037 | 99 ft | 13 kts | 115° |
| 2026-05-06 18:41 | 24.44741 | 54.64111 | 99 ft | 13 kts | 137° |
| 2026-05-06 18:42 | 24.44664 | 54.64154 | 99 ft | 13 kts | 162° |
| 2026-05-06 18:42 | 24.44582 | 54.64187 | 99 ft | 13 kts | 160° |
| 2026-05-06 18:42 | 24.44501 | 54.64222 | 100 ft | 13 kts | 156° |
| 2026-05-06 18:42 | 24.44421 | 54.64261 | 98 ft | 13 kts | 151° |
| 2026-05-06 18:43 | 24.44360 | 54.64328 | 98 ft | 13 kts | 128° |
| 2026-05-06 18:43 | 24.44326 | 54.64375 | 98 ft | 8 kts | 128° |
| 2026-05-06 18:43 | 24.44282 | 54.64411 | 97 ft | 9 kts | 171° |
| 2026-05-06 18:43 | 24.44220 | 54.64382 | 99 ft | 11 kts | 217° |
| 2026-05-06 18:44 | 24.44153 | 54.64393 | 100 ft | 12 kts | 127° |
| 2026-05-06 18:44 | 24.44096 | 54.64474 | 100 ft | 14 kts | 127° |
| 2026-05-06 18:44 | 24.44030 | 54.64568 | 99 ft | 16 kts | 128° |
| 2026-05-06 18:44 | 24.43960 | 54.64666 | 98 ft | 17 kts | 129° |
| 2026-05-06 18:45 | 24.43883 | 54.64770 | 98 ft | 18 kts | 129° |
| 2026-05-06 18:45 | 24.43803 | 54.64885 | 99 ft | 19 kts | 126° |
| 2026-05-06 18:45 | 24.43751 | 54.64962 | 98 ft | 19 kts | 126° |
| 2026-05-06 18:45 | 24.43668 | 54.65077 | 98 ft | 19 kts | 128° |
| 2026-05-06 18:46 | 24.43559 | 54.65230 | 98 ft | 20 kts | 128° |
| 2026-05-06 18:46 | 24.43502 | 54.65309 | 97 ft | 20 kts | 128° |
| 2026-05-06 18:46 | 24.43413 | 54.65433 | 99 ft | 21 kts | 128° |
| 2026-05-06 18:46 | 24.43321 | 54.65563 | 98 ft | 22 kts | 128° |
| 2026-05-06 18:47 | 24.43227 | 54.65697 | 98 ft | 22 kts | 128° |
| 2026-05-06 18:47 | 24.43132 | 54.65830 | 99 ft | 22 kts | 128° |
| 2026-05-06 18:47 | 24.43037 | 54.65963 | 98 ft | 22 kts | 128° |
| 2026-05-06 18:47 | 24.42942 | 54.66096 | 98 ft | 22 kts | 128° |
| 2026-05-06 18:48 | 24.42847 | 54.66229 | 100 ft | 22 kts | 128° |
| 2026-05-06 18:48 | 24.42753 | 54.66363 | 99 ft | 22 kts | 127° |
| 2026-05-06 18:48 | 24.42659 | 54.66497 | 100 ft | 22 kts | 127° |
| 2026-05-06 18:48 | 24.42579 | 54.66608 | 100 ft | 18 kts | 128° |
| 2026-05-06 18:49 | 24.42502 | 54.66716 | 99 ft | 18 kts | 128° |
| 2026-05-06 18:49 | 24.42433 | 54.66814 | 99 ft | 14 kts | 128° |
| 2026-05-06 18:49 | 24.42387 | 54.66858 | 99 ft | 0 kts | 165° |
| 2026-05-06 18:49 | 24.42386 | 54.66858 | 99 ft | 0 kts | 165° |
| 2026-05-06 18:50 | 24.42370 | 54.66857 | 97 ft | 5 kts | 187° |
| 2026-05-06 18:50 | 24.42318 | 54.66828 | 98 ft | 11 kts | 217° |
| 2026-05-06 18:50 | 24.42257 | 54.66776 | 99 ft | 11 kts | 219° |
| 2026-05-06 18:50 | 24.42200 | 54.66719 | 98 ft | 11 kts | 242° |
| 2026-05-06 18:51 | 24.42224 | 54.66642 | 98 ft | 11 kts | 308° |
| 2026-05-06 18:51 | 24.42309 | 54.66521 | 99 ft | 41 kts | 308° |
| 2026-05-06 18:51 | 24.42646 | 54.66049 | 99 ft | 116 kts | 308° |
| 2026-05-06 18:51 | 24.43290 | 54.65142 | 100 ft | 184 kts | 308° |
| 2026-05-06 18:52 | 24.44124 | 54.63895 | 414 ft | 204 kts | 308° |
| 2026-05-06 18:52 | 24.44958 | 54.62607 | 1026 ft | 206 kts | 307° |
| 2026-05-06 18:52 | 24.45858 | 54.61347 | 1632 ft | 212 kts | 311° |
| 2026-05-06 18:52 | 24.46814 | 54.60073 | 1878 ft | 227 kts | 308° |
| 2026-05-06 18:53 | 24.47831 | 54.58679 | 2006 ft | 241 kts | 308° |
| 2026-05-06 18:53 | 24.48912 | 54.57197 | 2207 ft | 254 kts | 308° |
| 2026-05-06 18:53 | 24.50033 | 54.55635 | 2458 ft | 266 kts | 307° |
| 2026-05-06 18:53 | 24.51182 | 54.54021 | 2845 ft | 272 kts | 307° |
| 2026-05-06 18:54 | 24.52353 | 54.52362 | 3309 ft | 275 kts | 306° |
| 2026-05-06 18:54 | 24.53527 | 54.50695 | 3836 ft | 277 kts | 307° |
| 2026-05-06 18:54 | 24.54719 | 54.49014 | 4304 ft | 280 kts | 307° |
| 2026-05-06 18:54 | 24.55924 | 54.47314 | 4771 ft | 283 kts | 306° |
| 2026-05-06 18:55 | 24.57134 | 54.45603 | 5282 ft | 285 kts | 306° |
| 2026-05-06 18:55 | 24.58355 | 54.43874 | 5784 ft | 287 kts | 306° |
| 2026-05-06 18:55 | 24.59584 | 54.42133 | 6289 ft | 289 kts | 307° |
| 2026-05-06 18:55 | 24.60818 | 54.40385 | 6775 ft | 291 kts | 307° |
| 2026-05-06 18:56 | 24.62048 | 54.38647 | 7246 ft | 293 kts | 307° |
| 2026-05-06 18:56 | 24.63306 | 54.36874 | 7734 ft | 294 kts | 307° |
| 2026-05-06 18:56 | 24.64572 | 54.35088 | 8113 ft | 302 kts | 308° |
| 2026-05-06 18:56 | 24.65880 | 54.33241 | 8448 ft | 310 kts | 308° |
| 2026-05-06 18:57 | 24.67212 | 54.31360 | 8897 ft | 314 kts | 308° |
| 2026-05-06 18:57 | 24.68554 | 54.29463 | 9428 ft | 315 kts | 308° |
| 2026-05-06 18:57 | 24.69905 | 54.27554 | 9934 ft | 317 kts | 308° |
| 2026-05-06 18:57 | 24.71263 | 54.25633 | 10347 ft | 322 kts | 309° |
| 2026-05-06 18:58 | 24.72682 | 54.23629 | 10445 ft | 339 kts | 310° |
| 2026-05-06 18:58 | 24.74164 | 54.21535 | 10583 ft | 355 kts | 310° |
| 2026-05-06 18:58 | 24.75714 | 54.19340 | 10695 ft | 371 kts | 310° |
| 2026-05-06 18:58 | 24.77309 | 54.17078 | 10926 ft | 384 kts | 310° |
| 2026-05-06 18:59 | 24.78959 | 54.14736 | 11317 ft | 390 kts | 310° |
| 2026-05-06 18:59 | 24.80636 | 54.12355 | 11793 ft | 394 kts | 310° |
| 2026-05-06 18:59 | 24.82322 | 54.09961 | 12355 ft | 396 kts | 310° |
| 2026-05-06 18:59 | 24.84010 | 54.07550 | 12924 ft | 398 kts | 309° |
| 2026-05-06 19:00 | 24.85576 | 54.05002 | 13436 ft | 403 kts | 305° |
| 2026-05-06 19:00 | 24.87157 | 54.02449 | 13889 ft | 405 kts | 311° |
| 2026-05-06 19:00 | 24.89030 | 54.00133 | 14312 ft | 406 kts | 315° |
| 2026-05-06 19:00 | 24.90978 | 53.97853 | 14802 ft | 408 kts | 315° |
| 2026-05-06 19:01 | 24.92909 | 53.95587 | 15286 ft | 409 kts | 315° |
| 2026-05-06 19:01 | 24.94858 | 53.93285 | 15747 ft | 413 kts | 314° |
| 2026-05-06 19:01 | 24.96825 | 53.90946 | 16175 ft | 416 kts | 314° |
| 2026-05-06 19:01 | 24.98800 | 53.88584 | 16600 ft | 420 kts | 314° |
| 2026-05-06 19:02 | 25.00763 | 53.86228 | 17019 ft | 423 kts | 313° |
| 2026-05-06 19:02 | 25.02762 | 53.83825 | 17484 ft | 426 kts | 313° |
| 2026-05-06 19:02 | 25.04765 | 53.81411 | 17959 ft | 428 kts | 312° |
| 2026-05-06 19:02 | 25.06785 | 53.78974 | 18341 ft | 431 kts | 312° |
| 2026-05-06 19:03 | 25.08817 | 53.76522 | 18748 ft | 433 kts | 312° |
| 2026-05-06 19:03 | 25.10846 | 53.74073 | 19244 ft | 432 kts | 312° |
| 2026-05-06 19:03 | 25.12874 | 53.71626 | 19692 ft | 433 kts | 311° |
| 2026-05-06 19:03 | 25.14909 | 53.69168 | 20130 ft | 434 kts | 311° |
| 2026-05-06 19:04 | 25.16928 | 53.66728 | 20549 ft | 435 kts | 311° |
| 2026-05-06 19:04 | 25.18973 | 53.64253 | 20949 ft | 437 kts | 311° |
| 2026-05-06 19:04 | 25.21028 | 53.61767 | 21314 ft | 440 kts | 311° |
| 2026-05-06 19:04 | 25.23105 | 53.59253 | 21686 ft | 443 kts | 311° |
| 2026-05-06 19:05 | 25.25191 | 53.56726 | 22063 ft | 445 kts | 311° |
| 2026-05-06 19:05 | 25.27290 | 53.54182 | 22435 ft | 447 kts | 311° |
| 2026-05-06 19:05 | 25.29388 | 53.51638 | 22817 ft | 449 kts | 311° |
| 2026-05-06 19:05 | 25.31491 | 53.49088 | 23197 ft | 450 kts | 311° |
| 2026-05-06 19:06 | 25.33585 | 53.46547 | 23526 ft | 452 kts | 311° |
| 2026-05-06 19:06 | 25.35707 | 53.43969 | 23818 ft | 454 kts | 311° |
| 2026-05-06 19:06 | 25.37841 | 53.41376 | 24114 ft | 456 kts | 311° |
| 2026-05-06 19:06 | 25.39981 | 53.38774 | 24399 ft | 457 kts | 310° |
| 2026-05-06 19:07 | 25.42125 | 53.36166 | 24693 ft | 459 kts | 310° |
| 2026-05-06 19:07 | 25.44287 | 53.33534 | 24986 ft | 461 kts | 310° |
| 2026-05-06 19:07 | 25.46420 | 53.30936 | 25276 ft | 462 kts | 310° |
| 2026-05-06 19:07 | 25.48583 | 53.28300 | 25583 ft | 463 kts | 310° |
| 2026-05-06 19:08 | 25.50755 | 53.25651 | 25851 ft | 465 kts | 310° |
| 2026-05-06 19:08 | 25.52932 | 53.22994 | 26098 ft | 467 kts | 310° |
| 2026-05-06 19:08 | 25.55117 | 53.20327 | 26361 ft | 468 kts | 309° |
| 2026-05-06 19:08 | 25.57311 | 53.17646 | 26616 ft | 470 kts | 309° |
| 2026-05-06 19:09 | 25.59514 | 53.14954 | 26900 ft | 472 kts | 309° |
| 2026-05-06 19:09 | 25.61724 | 53.12251 | 27150 ft | 473 kts | 309° |
| 2026-05-06 19:09 | 25.63938 | 53.09541 | 27398 ft | 474 kts | 309° |
| 2026-05-06 19:09 | 25.66132 | 53.06856 | 27666 ft | 475 kts | 309° |
| 2026-05-06 19:10 | 25.68349 | 53.04120 | 27746 ft | 479 kts | 307° |
| 2026-05-06 19:10 | 25.70390 | 53.01215 | 27815 ft | 477 kts | 302° |
| 2026-05-06 19:10 | 25.72192 | 52.98115 | 27813 ft | 479 kts | 296° |
| 2026-05-06 19:10 | 25.73741 | 52.94834 | 27857 ft | 480 kts | 294° |
| 2026-05-06 19:11 | 25.75272 | 52.91518 | 27831 ft | 484 kts | 294° |
| 2026-05-06 19:11 | 25.76821 | 52.88182 | 27825 ft | 488 kts | 295° |
| 2026-05-06 19:11 | 25.78390 | 52.84828 | 27823 ft | 490 kts | 295° |
| 2026-05-06 19:11 | 25.79968 | 52.81473 | 27827 ft | 490 kts | 295° |
| 2026-05-06 19:12 | 25.81534 | 52.78155 | 27826 ft | 490 kts | 295° |
| 2026-05-06 19:12 | 25.83116 | 52.74805 | 27830 ft | 490 kts | 295° |
| 2026-05-06 19:12 | 25.84701 | 52.71444 | 27826 ft | 490 kts | 295° |
| 2026-05-06 19:12 | 25.86284 | 52.68083 | 27823 ft | 490 kts | 295° |
| 2026-05-06 19:13 | 25.87861 | 52.64730 | 27826 ft | 490 kts | 295° |
| 2026-05-06 19:13 | 25.89440 | 52.61370 | 27826 ft | 490 kts | 295° |
| 2026-05-06 19:13 | 25.90997 | 52.58001 | 27825 ft | 489 kts | 294° |
| 2026-05-06 19:13 | 25.92506 | 52.54608 | 27830 ft | 489 kts | 293° |
| 2026-05-06 19:14 | 25.93999 | 52.51203 | 27834 ft | 489 kts | 293° |
| 2026-05-06 19:14 | 25.95490 | 52.47807 | 27838 ft | 489 kts | 293° |
| 2026-05-06 19:14 | 25.96987 | 52.44415 | 27840 ft | 488 kts | 293° |
| 2026-05-06 19:14 | 25.98487 | 52.41031 | 27834 ft | 488 kts | 293° |
| 2026-05-06 19:15 | 25.99993 | 52.37639 | 27834 ft | 488 kts | 293° |
| 2026-05-06 19:15 | 26.01478 | 52.34305 | 27834 ft | 488 kts | 293° |
| 2026-05-06 19:15 | 26.02982 | 52.30930 | 27837 ft | 487 kts | 293° |
| 2026-05-06 19:15 | 26.04489 | 52.27546 | 27836 ft | 487 kts | 293° |
| 2026-05-06 19:16 | 26.05993 | 52.24163 | 27835 ft | 487 kts | 293° |
| 2026-05-06 19:16 | 26.07494 | 52.20782 | 27836 ft | 487 kts | 293° |
| 2026-05-06 19:16 | 26.08994 | 52.17399 | 27832 ft | 488 kts | 293° |
| 2026-05-06 19:16 | 26.10503 | 52.13995 | 27847 ft | 487 kts | 293° |
| 2026-05-06 19:17 | 26.11981 | 52.10658 | 27842 ft | 487 kts | 293° |
| 2026-05-06 19:17 | 26.13482 | 52.07265 | 27834 ft | 487 kts | 293° |
| 2026-05-06 19:17 | 26.14977 | 52.03884 | 27831 ft | 486 kts | 293° |
| 2026-05-06 19:17 | 26.16472 | 52.00499 | 27832 ft | 486 kts | 293° |
| 2026-05-06 19:18 | 26.17969 | 51.97131 | 27836 ft | 486 kts | 294° |
| 2026-05-06 19:18 | 26.19488 | 51.93780 | 27836 ft | 486 kts | 294° |
| 2026-05-06 19:18 | 26.21002 | 51.90412 | 27839 ft | 487 kts | 293° |
| 2026-05-06 19:18 | 26.22484 | 51.87061 | 27986 ft | 488 kts | 293° |
| 2026-05-06 19:19 | 26.23979 | 51.83670 | 28300 ft | 485 kts | 292° |
| 2026-05-06 19:19 | 26.25464 | 51.80308 | 28692 ft | 482 kts | 292° |
| 2026-05-06 19:19 | 26.26951 | 51.76967 | 28967 ft | 481 kts | 292° |
| 2026-05-06 19:19 | 26.28438 | 51.73640 | 29277 ft | 480 kts | 292° |
| 2026-05-06 19:20 | 26.29923 | 51.70317 | 29567 ft | 478 kts | 292° |
| 2026-05-06 19:20 | 26.31405 | 51.66994 | 29762 ft | 478 kts | 292° |
| 2026-05-06 19:20 | 26.32886 | 51.63664 | 29796 ft | 479 kts | 292° |
| 2026-05-06 19:21 | 26.35847 | 51.57003 | 29824 ft | 478 kts | 292° |
| 2026-05-06 19:21 | 26.38601 | 51.50331 | 29836 ft | 474 kts | 285° |
| 2026-05-06 19:22 | 26.40746 | 51.43386 | 29785 ft | 470 kts | 285° |
| 2026-05-06 19:22 | 26.41831 | 51.39932 | 29472 ft | 471 kts | 285° |
| 2026-05-06 19:22 | 26.42917 | 51.36518 | 29033 ft | 474 kts | 286° |
| 2026-05-06 19:22 | 26.44047 | 51.33049 | 28859 ft | 476 kts | 287° |
| 2026-05-06 19:23 | 26.45194 | 51.29561 | 28858 ft | 479 kts | 287° |
| 2026-05-06 19:23 | 26.47475 | 51.22542 | 28851 ft | 480 kts | 286° |
| 2026-05-06 19:24 | 26.49700 | 51.15526 | 28856 ft | 479 kts | 285° |
| 2026-05-06 19:24 | 26.51902 | 51.08564 | 28834 ft | 477 kts | 285° |
| 2026-05-06 19:25 | 26.54112 | 51.01586 | 28842 ft | 475 kts | 285° |
| 2026-05-06 19:25 | 26.56305 | 50.94655 | 28852 ft | 474 kts | 285° |
| 2026-05-06 19:26 | 26.58488 | 50.87688 | 28856 ft | 474 kts | 285° |
| 2026-05-06 19:26 | 26.60625 | 50.80697 | 28861 ft | 476 kts | 285° |
| 2026-05-06 19:27 | 26.62758 | 50.73714 | 28834 ft | 476 kts | 285° |
| 2026-05-06 19:27 | 26.63827 | 50.70226 | 28727 ft | 473 kts | 285° |
| 2026-05-06 19:27 | 26.64885 | 50.66746 | 28395 ft | 473 kts | 284° |
| 2026-05-06 19:27 | 26.65929 | 50.63246 | 27968 ft | 477 kts | 284° |
| 2026-05-06 19:28 | 26.66975 | 50.59711 | 27893 ft | 479 kts | 284° |
| 2026-05-06 19:28 | 26.68023 | 50.56171 | 28030 ft | 480 kts | 284° |
| 2026-05-06 19:28 | 26.69078 | 50.52617 | 27974 ft | 481 kts | 284° |
| 2026-05-06 19:28 | 26.70130 | 50.49077 | 27907 ft | 478 kts | 284° |
| 2026-05-06 19:29 | 26.71140 | 50.45542 | 27856 ft | 476 kts | 283° |
| 2026-05-06 19:29 | 26.72050 | 50.42031 | 27880 ft | 475 kts | 282° |
| 2026-05-06 19:29 | 26.72941 | 50.38469 | 27874 ft | 476 kts | 282° |
| 2026-05-06 19:29 | 26.73838 | 50.34900 | 27877 ft | 477 kts | 282° |
| 2026-05-06 19:30 | 26.74754 | 50.31329 | 27868 ft | 477 kts | 282° |
| 2026-05-06 19:30 | 26.75676 | 50.27768 | 27866 ft | 476 kts | 282° |
| 2026-05-06 19:30 | 26.76641 | 50.24217 | 27871 ft | 476 kts | 284° |
| 2026-05-06 19:30 | 26.77691 | 50.20699 | 27874 ft | 476 kts | 285° |
| 2026-05-06 19:31 | 26.78770 | 50.17191 | 27882 ft | 476 kts | 285° |
| 2026-05-06 19:31 | 26.79844 | 50.13683 | 27867 ft | 475 kts | 285° |
| 2026-05-06 19:31 | 26.81928 | 50.06732 | 27873 ft | 474 kts | 284° |
| 2026-05-06 19:32 | 26.82969 | 50.03217 | 27871 ft | 473 kts | 284° |
| 2026-05-06 19:32 | 26.84004 | 49.99718 | 27873 ft | 473 kts | 284° |
| 2026-05-06 19:32 | 26.85032 | 49.96243 | 27869 ft | 474 kts | 284° |
| 2026-05-06 19:32 | 26.86070 | 49.92736 | 27873 ft | 475 kts | 284° |
| 2026-05-06 19:33 | 26.87115 | 49.89202 | 27873 ft | 476 kts | 284° |
| 2026-05-06 19:33 | 26.88156 | 49.85677 | 27871 ft | 478 kts | 284° |
| 2026-05-06 19:33 | 26.88850 | 49.83324 | 27870 ft | 478 kts | 284° |
| 2026-05-06 19:33 | 26.90250 | 49.78577 | 27871 ft | 480 kts | 284° |
| 2026-05-06 19:34 | 26.91285 | 49.75063 | 27872 ft | 480 kts | 284° |
| 2026-05-06 19:34 | 26.92333 | 49.71499 | 27868 ft | 481 kts | 284° |
| 2026-05-06 19:34 | 26.93378 | 49.67943 | 27863 ft | 481 kts | 284° |
| 2026-05-06 19:34 | 26.94073 | 49.65576 | 27884 ft | 481 kts | 284° |
| 2026-05-06 19:35 | 26.95120 | 49.62008 | 27879 ft | 482 kts | 284° |
| 2026-05-06 19:35 | 26.96166 | 49.58437 | 27868 ft | 482 kts | 284° |
| 2026-05-06 19:35 | 26.97212 | 49.54861 | 27868 ft | 483 kts | 284° |
| 2026-05-06 19:35 | 26.98602 | 49.50108 | 27869 ft | 483 kts | 284° |
| 2026-05-06 19:36 | 26.99308 | 49.47691 | 27866 ft | 483 kts | 284° |
| 2026-05-06 19:36 | 27.00362 | 49.44099 | 27858 ft | 483 kts | 285° |
| 2026-05-06 19:36 | 27.01568 | 49.40621 | 27868 ft | 486 kts | 290° |
| 2026-05-06 19:36 | 27.03112 | 49.37183 | 27863 ft | 489 kts | 296° |
| 2026-05-06 19:37 | 27.04793 | 49.33921 | 27879 ft | 489 kts | 296° |
| 2026-05-06 19:37 | 27.06494 | 49.30612 | 27876 ft | 489 kts | 296° |
| 2026-05-06 19:37 | 27.08186 | 49.27291 | 27872 ft | 489 kts | 296° |
| 2026-05-06 19:37 | 27.09866 | 49.23964 | 27878 ft | 490 kts | 296° |
| 2026-05-06 19:38 | 27.11546 | 49.20619 | 27884 ft | 490 kts | 295° |
| 2026-05-06 19:38 | 27.13201 | 49.17314 | 27885 ft | 491 kts | 295° |
| 2026-05-06 19:38 | 27.14872 | 49.13972 | 27890 ft | 492 kts | 295° |
| 2026-05-06 19:38 | 27.16552 | 49.10611 | 27891 ft | 492 kts | 295° |
| 2026-05-06 19:39 | 27.18226 | 49.07260 | 27891 ft | 493 kts | 295° |
| 2026-05-06 19:39 | 27.19908 | 49.03894 | 27912 ft | 493 kts | 294° |
| 2026-05-06 19:39 | 27.21590 | 49.00525 | 27903 ft | 493 kts | 294° |
| 2026-05-06 19:39 | 27.23264 | 48.97174 | 27899 ft | 492 kts | 294° |
| 2026-05-06 19:40 | 27.24920 | 48.93862 | 27883 ft | 492 kts | 294° |
| 2026-05-06 19:40 | 27.26596 | 48.90514 | 27908 ft | 491 kts | 294° |
| 2026-05-06 19:40 | 27.28271 | 48.87163 | 27905 ft | 490 kts | 294° |
| 2026-05-06 19:40 | 27.29940 | 48.83821 | 27891 ft | 490 kts | 294° |
| 2026-05-06 19:41 | 27.31608 | 48.80476 | 27915 ft | 489 kts | 294° |
| 2026-05-06 19:41 | 27.33271 | 48.77140 | 27936 ft | 487 kts | 294° |
| 2026-05-06 19:41 | 27.34925 | 48.73819 | 27906 ft | 485 kts | 294° |
| 2026-05-06 19:41 | 27.36570 | 48.70514 | 27908 ft | 482 kts | 294° |
| 2026-05-06 19:42 | 27.38181 | 48.67274 | 27910 ft | 479 kts | 294° |
| 2026-05-06 19:42 | 27.39808 | 48.63999 | 27910 ft | 478 kts | 294° |
| 2026-05-06 19:42 | 27.41434 | 48.60721 | 27921 ft | 478 kts | 294° |
| 2026-05-06 19:42 | 27.43054 | 48.57453 | 27938 ft | 478 kts | 293° |
| 2026-05-06 19:43 | 27.44677 | 48.54173 | 27925 ft | 479 kts | 294° |
| 2026-05-06 19:43 | 27.46300 | 48.50892 | 27947 ft | 480 kts | 293° |
| 2026-05-06 19:43 | 27.47912 | 48.47633 | 27945 ft | 481 kts | 293° |
| 2026-05-06 19:43 | 27.49545 | 48.44332 | 27939 ft | 482 kts | 293° |
| 2026-05-06 19:44 | 27.51180 | 48.41023 | 27930 ft | 483 kts | 293° |
| 2026-05-06 19:44 | 27.52815 | 48.37710 | 27938 ft | 484 kts | 293° |
| 2026-05-06 19:44 | 27.53897 | 48.35516 | 27942 ft | 484 kts | 293° |
| 2026-05-06 19:45 | 27.59720 | 48.23689 | 27954 ft | 485 kts | 293° |
| 2026-05-06 19:45 | 27.61357 | 48.20350 | 27946 ft | 485 kts | 293° |
| 2026-05-06 19:45 | 27.62994 | 48.17008 | 27945 ft | 485 kts | 293° |
| 2026-05-06 19:46 | 27.64625 | 48.13672 | 27951 ft | 485 kts | 293° |
| 2026-05-06 19:46 | 27.66258 | 48.10333 | 27954 ft | 485 kts | 293° |
| 2026-05-06 19:46 | 27.67889 | 48.06997 | 27952 ft | 485 kts | 293° |
| 2026-05-06 19:46 | 27.69515 | 48.03668 | 27959 ft | 485 kts | 293° |
| 2026-05-06 19:47 | 27.71124 | 48.00374 | 27972 ft | 485 kts | 293° |
| 2026-05-06 19:47 | 27.72751 | 47.97041 | 27974 ft | 484 kts | 293° |
| 2026-05-06 19:47 | 27.74379 | 47.93704 | 27960 ft | 484 kts | 293° |
| 2026-05-06 19:47 | 27.76004 | 47.90370 | 27952 ft | 484 kts | 293° |
| 2026-05-06 19:48 | 27.77631 | 47.87028 | 27958 ft | 483 kts | 292° |
| 2026-05-06 19:48 | 27.79246 | 47.83709 | 27961 ft | 483 kts | 292° |
| 2026-05-06 19:48 | 27.80842 | 47.80427 | 27962 ft | 482 kts | 292° |
| 2026-05-06 19:48 | 27.82456 | 47.77104 | 27965 ft | 482 kts | 292° |
| 2026-05-06 19:49 | 27.84025 | 47.73751 | 27976 ft | 480 kts | 290° |
| 2026-05-06 19:49 | 27.85325 | 47.70299 | 27954 ft | 474 kts | 284° |
| 2026-05-06 19:49 | 27.86036 | 47.67962 | 27962 ft | 473 kts | 283° |
| 2026-05-06 19:49 | 27.87451 | 47.63259 | 27963 ft | 473 kts | 283° |
| 2026-05-06 19:50 | 27.88159 | 47.60925 | 27962 ft | 473 kts | 283° |
| 2026-05-06 19:50 | 27.89229 | 47.57415 | 27964 ft | 473 kts | 283° |
| 2026-05-06 19:50 | 27.90309 | 47.53893 | 27961 ft | 473 kts | 283° |
| 2026-05-06 19:50 | 27.91745 | 47.49230 | 27958 ft | 474 kts | 283° |
| 2026-05-06 19:51 | 27.92478 | 47.46855 | 27966 ft | 474 kts | 283° |
| 2026-05-06 19:51 | 27.93564 | 47.43332 | 27964 ft | 474 kts | 283° |
| 2026-05-06 19:51 | 27.94649 | 47.39809 | 27971 ft | 474 kts | 283° |
| 2026-05-06 19:51 | 27.95720 | 47.36327 | 27964 ft | 474 kts | 283° |
| 2026-05-06 19:52 | 27.96808 | 47.32786 | 27961 ft | 474 kts | 283° |
| 2026-05-06 19:52 | 27.97892 | 47.29251 | 27964 ft | 474 kts | 283° |
| 2026-05-06 19:52 | 27.98973 | 47.25725 | 27962 ft | 474 kts | 283° |
| 2026-05-06 19:52 | 28.00054 | 47.22193 | 27960 ft | 474 kts | 283° |
| 2026-05-06 19:53 | 28.01135 | 47.18656 | 27963 ft | 474 kts | 283° |
| 2026-05-06 19:53 | 28.02198 | 47.15177 | 27971 ft | 475 kts | 283° |
| 2026-05-06 19:53 | 28.03277 | 47.11641 | 27981 ft | 475 kts | 283° |
| 2026-05-06 19:53 | 28.04353 | 47.08111 | 27982 ft | 474 kts | 283° |
| 2026-05-06 19:54 | 28.05426 | 47.04586 | 27969 ft | 474 kts | 283° |
| 2026-05-06 19:54 | 28.06499 | 47.01061 | 27969 ft | 473 kts | 283° |
| 2026-05-06 19:54 | 28.07549 | 46.97603 | 27976 ft | 472 kts | 283° |
| 2026-05-06 19:54 | 28.08617 | 46.94088 | 27984 ft | 472 kts | 283° |
| 2026-05-06 19:55 | 28.09563 | 46.90967 | 27967 ft | 471 kts | 283° |
| 2026-05-06 19:55 | 28.10585 | 46.87597 | 27983 ft | 471 kts | 283° |
| 2026-05-06 19:55 | 28.11644 | 46.84271 | 27981 ft | 471 kts | 284° |
| 2026-05-06 19:55 | 28.12806 | 46.80791 | 27969 ft | 472 kts | 285° |
| 2026-05-06 19:56 | 28.13989 | 46.77309 | 27995 ft | 472 kts | 285° |
| 2026-05-06 19:56 | 28.15167 | 46.73840 | 27972 ft | 472 kts | 285° |
| 2026-05-06 19:56 | 28.16338 | 46.70369 | 27976 ft | 471 kts | 285° |
| 2026-05-06 19:56 | 28.17502 | 46.66895 | 27982 ft | 471 kts | 284° |
| 2026-05-06 19:57 | 28.18659 | 46.63423 | 27986 ft | 471 kts | 284° |
| 2026-05-06 19:57 | 28.19803 | 46.59975 | 27983 ft | 471 kts | 284° |
| 2026-05-06 19:57 | 28.20954 | 46.56501 | 27989 ft | 471 kts | 284° |
| 2026-05-06 19:57 | 28.22106 | 46.53020 | 27991 ft | 471 kts | 284° |
| 2026-05-06 19:58 | 28.23256 | 46.49541 | 27987 ft | 471 kts | 284° |
| 2026-05-06 19:58 | 28.24407 | 46.46058 | 27988 ft | 471 kts | 284° |
| 2026-05-06 19:58 | 28.25555 | 46.42579 | 27989 ft | 471 kts | 284° |
| 2026-05-06 19:58 | 28.26704 | 46.39095 | 27990 ft | 471 kts | 284° |
| 2026-05-06 19:59 | 28.27852 | 46.35613 | 27993 ft | 471 kts | 284° |
| 2026-05-06 19:59 | 28.29001 | 46.32123 | 27991 ft | 471 kts | 284° |
| 2026-05-06 19:59 | 28.30145 | 46.28642 | 27992 ft | 471 kts | 284° |
| 2026-05-06 19:59 | 28.31289 | 46.25162 | 27994 ft | 471 kts | 284° |
| 2026-05-06 20:00 | 28.33570 | 46.18198 | 28001 ft | 471 kts | 284° |
| 2026-05-06 20:00 | 28.34712 | 46.14710 | 27995 ft | 471 kts | 284° |
| 2026-05-06 20:00 | 28.35842 | 46.11270 | 27993 ft | 471 kts | 284° |
| 2026-05-06 20:01 | 28.37050 | 46.07803 | 27997 ft | 472 kts | 286° |
| 2026-05-06 20:01 | 28.38330 | 46.04366 | 27997 ft | 473 kts | 287° |
| 2026-05-06 20:01 | 28.39641 | 46.00926 | 27997 ft | 473 kts | 287° |
| 2026-05-06 20:01 | 28.40953 | 45.97491 | 27991 ft | 473 kts | 287° |
| 2026-05-06 20:02 | 28.42254 | 45.94059 | 27993 ft | 473 kts | 287° |
| 2026-05-06 20:02 | 28.43551 | 45.90610 | 28000 ft | 473 kts | 287° |
| 2026-05-06 20:02 | 28.44818 | 45.87217 | 27994 ft | 472 kts | 286° |
| 2026-05-06 20:02 | 28.46098 | 45.83771 | 27991 ft | 472 kts | 286° |
| 2026-05-06 20:03 | 28.47372 | 45.80331 | 27996 ft | 472 kts | 286° |
| 2026-05-06 20:03 | 28.48646 | 45.76887 | 28001 ft | 472 kts | 286° |
| 2026-05-06 20:03 | 28.49922 | 45.73433 | 27991 ft | 472 kts | 286° |
| 2026-05-06 20:03 | 28.51195 | 45.69985 | 27993 ft | 472 kts | 286° |
| 2026-05-06 20:04 | 28.52462 | 45.66549 | 27991 ft | 472 kts | 286° |
| 2026-05-06 20:04 | 28.53733 | 45.63103 | 28005 ft | 472 kts | 286° |
| 2026-05-06 20:04 | 28.55000 | 45.59664 | 27994 ft | 471 kts | 286° |
| 2026-05-06 20:04 | 28.56252 | 45.56263 | 28000 ft | 471 kts | 286° |
| 2026-05-06 20:05 | 28.57517 | 45.52822 | 27994 ft | 471 kts | 286° |
| 2026-05-06 20:05 | 28.58784 | 45.49375 | 27991 ft | 471 kts | 286° |